Time,TemperatureF,DewpointF,PressureIn,WindDirection,WindDirectionDegrees,WindSpeedMPH,WindSpeedGustMPH,Humidity,HourlyPrecipIn,Conditions,Clouds,dailyrainin,SoftwareType,DateUTC
2013-07-11 00:02:00,74.2,74.0,30.07,NNE,33,1.0,4.0,98,0.00,,,0.00,weatherlink.com 1.10,2013-07-11 04:02:00,
2013-07-11 00:17:00,74.2,74.0,30.07,NE,36,2.0,4.0,98,0.00,,,0.00,weatherlink.com 1.10,2013-07-11 04:17:00,
2013-07-11 00:32:00,74.2,74.0,30.07,NE,42,2.0,4.0,99,0.00,,,0.00,weatherlink.com 1.10,2013-07-11 04:32:00,
2013-07-11 00:47:00,74.2,74.0,30.06,ENE,58,0.0,5.0,99,0.00,,,0.00,weatherlink.com 1.10,2013-07-11 04:47:00,
2013-07-11 01:02:00,74.0,74.0,30.06,NE,34,2.0,4.0,99,0.00,,,0.00,weatherlink.com 1.10,2013-07-11 05:02:00,
2013-07-11 01:17:00,73.9,74.0,30.06,ENE,60,2.0,4.0,99,0.00,,,0.00,weatherlink.com 1.10,2013-07-11 05:17:00,
2013-07-11 01:32:00,74.0,74.0,30.05,ENE,60,2.0,4.0,99,0.00,,,0.00,weatherlink.com 1.10,2013-07-11 05:32:00,
2013-07-11 01:48:00,74.0,74.0,30.05,NE,54,4.0,9.0,99,0.00,,,0.00,weatherlink.com 1.10,2013-07-11 05:48:00,
2013-07-11 02:03:00,73.9,73.0,30.04,ENE,71,5.0,7.0,98,0.00,,,0.00,weatherlink.com 1.10,2013-07-11 06:03:00,
2013-07-11 02:18:00,73.9,73.0,30.04,ENE,78,3.0,7.0,98,0.00,,,0.00,weatherlink.com 1.10,2013-07-11 06:18:00,
2013-07-11 02:33:00,73.8,73.0,30.04,NE,43,4.0,5.0,98,0.00,,,0.00,weatherlink.com 1.10,2013-07-11 06:33:00,
2013-07-11 02:48:00,73.8,73.0,30.03,NE,55,2.0,3.0,98,0.00,,,0.00,weatherlink.com 1.10,2013-07-11 06:48:00,
2013-07-11 03:03:00,73.8,73.0,30.03,East,90,3.0,7.0,98,0.00,,,0.00,weatherlink.com 1.10,2013-07-11 07:03:00,
2013-07-11 03:18:00,73.6,73.0,30.03,East,80,2.0,7.0,98,0.00,,,0.00,weatherlink.com 1.10,2013-07-11 07:18:00,
2013-07-11 03:33:00,73.7,73.0,30.02,East,80,2.0,5.0,98,0.00,,,0.00,weatherlink.com 1.10,2013-07-11 07:33:00,
2013-07-11 03:48:00,73.7,73.0,30.02,ENE,71,2.0,4.0,98,0.00,,,0.00,weatherlink.com 1.10,2013-07-11 07:48:00,
2013-07-11 04:03:00,73.5,73.0,30.02,ENE,75,2.0,4.0,98,0.00,,,0.00,weatherlink.com 1.10,2013-07-11 08:03:00,
2013-07-11 04:18:00,73.4,73.0,30.02,ENE,70,0.0,3.0,98,0.00,,,0.00,weatherlink.com 1.10,2013-07-11 08:18:00,
2013-07-11 04:33:00,73.3,73.0,30.03,ENE,70,0.0,2.0,98,0.00,,,0.00,weatherlink.com 1.10,2013-07-11 08:33:00,
2013-07-11 04:48:00,73.1,73.0,30.03,ENE,70,0.0,2.0,98,0.00,,,0.00,weatherlink.com 1.10,2013-07-11 08:48:00,
2013-07-11 05:03:00,73.2,73.0,30.03,ENE,70,1.0,2.0,99,0.00,,,0.00,weatherlink.com 1.10,2013-07-11 09:03:00,
2013-07-11 05:18:00,73.3,73.0,30.02,ENE,70,1.0,3.0,99,0.00,,,0.00,weatherlink.com 1.10,2013-07-11 09:18:00,
2013-07-11 05:33:00,73.3,73.0,30.03,ENE,70,0.0,3.0,99,0.00,,,0.00,weatherlink.com 1.10,2013-07-11 09:33:00,
2013-07-11 05:48:00,73.3,73.0,30.03,ENE,70,1.0,3.0,99,0.00,,,0.00,weatherlink.com 1.10,2013-07-11 09:48:00,
2013-07-11 06:03:00,73.0,72.0,30.03,ENE,70,0.0,0.0,98,0.00,,,0.00,weatherlink.com 1.10,2013-07-11 10:03:00,
2013-07-11 06:18:00,72.9,73.0,30.04,ENE,70,0.0,0.0,99,0.00,,,0.00,weatherlink.com 1.10,2013-07-11 10:18:00,
2013-07-11 06:33:00,72.9,73.0,30.04,ENE,70,0.0,0.0,99,0.00,,,0.00,weatherlink.com 1.10,2013-07-11 10:33:00,
2013-07-11 06:48:00,73.0,73.0,30.04,ENE,70,0.0,2.0,99,0.00,,,0.00,weatherlink.com 1.10,2013-07-11 10:48:00,
2013-07-11 07:03:00,72.9,73.0,30.05,ENE,70,0.0,0.0,99,0.00,,,0.00,weatherlink.com 1.10,2013-07-11 11:03:00,
2013-07-11 07:18:00,73.4,73.0,30.04,ENE,70,0.0,0.0,99,0.00,,,0.00,weatherlink.com 1.10,2013-07-11 11:18:00,
2013-07-11 07:33:00,74.1,74.0,30.04,ENE,67,3.0,3.0,99,0.00,,,0.00,weatherlink.com 1.10,2013-07-11 11:33:00,
2013-07-11 07:48:00,74.7,74.0,30.04,NE,39,2.0,4.0,99,0.00,,,0.00,weatherlink.com 1.10,2013-07-11 11:48:00,
2013-07-11 08:03:00,75.5,75.0,30.04,ENE,57,3.0,5.0,98,0.00,,,0.00,weatherlink.com 1.10,2013-07-11 12:03:00,
2013-07-11 08:18:00,76.4,75.0,30.04,ENE,67,3.0,6.0,96,0.00,,,0.00,weatherlink.com 1.10,2013-07-11 12:18:00,
2013-07-11 08:33:00,77.1,75.0,30.03,NE,35,4.0,8.0,92,0.00,,,0.00,weatherlink.com 1.10,2013-07-11 12:33:00,
2013-07-11 08:48:00,77.8,75.0,30.04,ENE,76,4.0,7.0,92,0.00,,,0.00,weatherlink.com 1.10,2013-07-11 12:48:00,
2013-07-11 09:03:00,78.6,75.0,30.04,East,96,7.0,9.0,89,0.00,,,0.00,weatherlink.com 1.10,2013-07-11 13:03:00,
2013-07-11 09:18:00,79.5,76.0,30.04,NE,54,6.0,8.0,88,0.00,,,0.00,weatherlink.com 1.10,2013-07-11 13:18:00,
2013-07-11 09:33:00,79.7,75.0,30.05,ENE,69,4.0,9.0,86,0.00,,,0.00,weatherlink.com 1.10,2013-07-11 13:33:00,
2013-07-11 10:03:00,81.1,76.0,30.04,ENE,76,8.0,9.0,85,0.00,,,0.00,weatherlink.com 1.10,2013-07-11 14:03:00,
2013-07-11 10:18:00,81.6,76.0,30.05,East,100,6.0,9.0,83,0.00,,,0.00,weatherlink.com 1.10,2013-07-11 14:18:00,
2013-07-11 10:33:00,82.2,77.0,30.05,ENE,76,4.0,8.0,83,0.00,,,0.00,weatherlink.com 1.10,2013-07-11 14:33:00,
2013-07-11 10:48:00,83.1,77.0,30.05,ESE,113,2.0,9.0,82,0.00,,,0.00,weatherlink.com 1.10,2013-07-11 14:48:00,
2013-07-11 11:03:00,83.6,76.0,30.04,East,85,1.0,9.0,78,0.00,,,0.00,weatherlink.com 1.10,2013-07-11 15:03:00,
2013-07-11 11:18:00,84.2,76.0,30.04,East,93,2.0,7.0,76,0.00,,,0.00,weatherlink.com 1.10,2013-07-11 15:18:00,
2013-07-11 11:33:00,84.9,76.0,30.04,East,97,5.0,7.0,75,0.00,,,0.00,weatherlink.com 1.10,2013-07-11 15:33:00,
2013-07-11 11:49:00,84.4,75.0,30.04,NE,51,0.0,10.0,73,0.00,,,0.00,weatherlink.com 1.10,2013-07-11 15:49:00,
2013-07-11 12:04:00,85.5,75.0,30.04,ENE,75,7.0,10.0,71,0.00,,,0.00,weatherlink.com 1.10,2013-07-11 16:04:00,
2013-07-11 12:19:00,85.9,75.0,30.03,ESE,121,7.0,9.0,69,0.00,,,0.00,weatherlink.com 1.10,2013-07-11 16:19:00,
2013-07-11 12:34:00,86.6,74.0,30.03,ESE,110,4.0,8.0,67,0.00,,,0.00,weatherlink.com 1.10,2013-07-11 16:34:00,
2013-07-11 12:49:00,87.2,75.0,30.02,SE,132,7.0,8.0,68,0.00,,,0.00,weatherlink.com 1.10,2013-07-11 16:49:00,
2013-07-11 13:19:00,87.6,75.0,30.02,East,84,7.0,9.0,66,0.00,,,0.00,weatherlink.com 1.10,2013-07-11 17:19:00,
2013-07-11 13:34:00,87.5,75.0,30.01,East,79,7.0,11.0,67,0.00,,,0.00,weatherlink.com 1.10,2013-07-11 17:34:00,
2013-07-11 13:49:00,86.5,74.0,30.01,East,97,3.0,8.0,67,0.00,,,0.00,weatherlink.com 1.10,2013-07-11 17:49:00,
2013-07-11 14:04:00,80.2,75.0,30.02,SE,132,9.0,19.0,83,0.00,,,0.00,weatherlink.com 1.10,2013-07-11 18:04:00,
2013-07-11 14:22:00,74.0,72.0,30.02,SSE,157,13.0,18.0,93,0.00,,,0.00,weatherlink.com 1.10,2013-07-11 18:22:00,
2013-07-11 14:34:00,73.4,72.0,30.02,SSW,207,3.0,8.0,94,0.03,,,0.03,weatherlink.com 1.10,2013-07-11 18:34:00,
2013-07-11 15:04:00,75.6,74.0,30.01,SE,139,2.0,5.0,95,0.04,,,0.04,weatherlink.com 1.10,2013-07-11 19:04:00,
2013-07-11 15:19:00,75.9,74.0,30.01,SE,140,2.0,3.0,95,0.04,,,0.04,weatherlink.com 1.10,2013-07-11 19:19:00,